Hillsboro, West Virginia
Current Conditions -  °F | °C
As of 5:15 AM on Thursday 23 Oct 2014 (Local Time) from KLWB Reporting Station
Overcast Overcast  
Wind Chill:   Ceiling: 2000
Heat Index:   Visibility: 10mi
Dew Point:   Wind: 6mph
Humidity: 74%   Direction: 350°N
Pressure: 30.11"   Gusts: NA
Location:  38.14°N, 80.21°W
Report Text: KLWB 230915Z AUTO 35005KT 10SM OVC020 08/03 A3011 RMK AO2 T00750031
Loading
Personal Weather Stations






























Interactive Weather Map
Tropical Storm Tracking
New forecast layout! Learn more

10-Day Weather Forecast

Advertisements
Track Severe Weather on mobile